sensor_id;sensor_type;location;lat;lon;timestamp;pressure;altitude;pressure_sealevel;temperature;humidity
41684;BME280;27369;52.030;4.586;2023-04-27T00:00:23;6648.06;;;-144.41;100.00
41684;BME280;27369;52.030;4.586;2023-04-27T00:02:48;5896.72;;;-144.41;100.00
41684;BME280;27369;52.030;4.586;2023-04-27T00:05:14;5145.50;;;-144.41;100.00
41684;BME280;27369;52.030;4.586;2023-04-27T00:07:39;4394.44;;;-144.41;100.00
41684;BME280;27369;52.030;4.586;2023-04-27T00:10:05;4394.44;;;-144.41;100.00
41684;BME280;27369;52.030;4.586;2023-04-27T00:12:32;3643.53;;;-144.41;100.00
41684;BME280;27369;52.030;4.586;2023-04-27T00:14:57;3393.28;;;-144.41;100.00
41684;BME280;27369;52.030;4.586;2023-04-27T00:17:22;3393.28;;;-144.41;100.00
41684;BME280;27369;52.030;4.586;2023-04-27T00:19:48;3143.03;;;-144.41;100.00
41684;BME280;27369;52.030;4.586;2023-04-27T00:22:13;2392.34;;;-144.41;100.00
41684;BME280;27369;52.030;4.586;2023-04-27T00:24:39;1641.84;;;-144.41;100.00
41684;BME280;27369;52.030;4.586;2023-04-27T00:27:06;1141.56;;;-144.41;100.00
41684;BME280;27369;52.030;4.586;2023-04-27T00:29:31;641.38;;;-144.41;100.00
41684;BME280;27369;52.030;4.586;2023-04-27T00:31:57;391.28;;;-144.41;100.00
41684;BME280;27369;52.030;4.586;2023-04-27T00:34:22;-108.81;;;-144.41;100.00
41684;BME280;27369;52.030;4.586;2023-04-27T00:36:47;-608.84;;;-144.41;100.00
41684;BME280;27369;52.030;4.586;2023-04-27T00:39:13;-1358.78;;;-144.41;100.00
41684;BME280;27369;52.030;4.586;2023-04-27T00:41:38;-2108.59;;;-144.41;100.00
41684;BME280;27369;52.030;4.586;2023-04-27T00:44:04;-2358.47;;;-144.41;100.00
41684;BME280;27369;52.030;4.586;2023-04-27T00:46:30;-2858.22;;;-144.41;100.00
41684;BME280;27369;52.030;4.586;2023-04-27T00:48:57;-2608.38;;;-144.41;100.00
41684;BME280;27369;52.030;4.586;2023-04-27T00:51:23;-2608.38;;;-144.41;100.00
41684;BME280;27369;52.030;4.586;2023-04-27T00:53:52;-3357.91;;;-144.41;100.00
41684;BME280;27369;52.030;4.586;2023-04-27T00:56:18;-3357.91;;;-144.41;100.00
41684;BME280;27369;52.030;4.586;2023-04-27T00:58:43;-3357.91;;;-144.41;100.00
41684;BME280;27369;52.030;4.586;2023-04-27T01:01:09;-3607.72;;;-144.41;100.00
41684;BME280;27369;52.030;4.586;2023-04-27T01:03:35;-4107.31;;;-144.41;100.00
41684;BME280;27369;52.030;4.586;2023-04-27T01:06:00;-4606.81;;;-144.41;100.00
41684;BME280;27369;52.030;4.586;2023-04-27T01:08:29;-5106.28;;;-144.41;100.00
41684;BME280;27369;52.030;4.586;2023-04-27T01:10:54;-5356.00;;;-144.41;100.00
41684;BME280;27369;52.030;4.586;2023-04-27T01:13:20;-4856.56;;;-144.41;100.00
41684;BME280;27369;52.030;4.586;2023-04-27T01:15:46;-5106.28;;;-144.41;100.00
41684;BME280;27369;52.030;4.586;2023-04-27T01:18:11;-5605.66;;;-144.41;100.00
41684;BME280;27369;52.030;4.586;2023-04-27T01:20:37;-5605.66;;;-144.41;100.00
41684;BME280;27369;52.030;4.586;2023-04-27T01:23:03;-5855.34;;;-144.41;100.00
41684;BME280;27369;52.030;4.586;2023-04-27T01:25:29;-6105.00;;;-144.41;100.00
41684;BME280;27369;52.030;4.586;2023-04-27T01:27:54;-6853.88;;;-144.41;100.00
41684;BME280;27369;52.030;4.586;2023-04-27T01:30:20;-7103.44;;;-144.41;100.00
41684;BME280;27369;52.030;4.586;2023-04-27T01:32:47;-7103.44;;;-144.41;100.00
41684;BME280;27369;52.030;4.586;2023-04-27T01:35:12;-7602.59;;;-144.41;100.00
41684;BME280;27369;52.030;4.586;2023-04-27T01:37:38;-7353.03;;;-144.41;100.00
41684;BME280;27369;52.030;4.586;2023-04-27T01:40:04;-7602.59;;;-144.41;100.00
41684;BME280;27369;52.030;4.586;2023-04-27T01:42:30;-8101.66;;;-144.41;100.00
41684;BME280;27369;52.030;4.586;2023-04-27T01:44:56;-8600.66;;;-144.41;100.00
41684;BME280;27369;52.030;4.586;2023-04-27T01:47:21;-8850.13;;;-144.41;100.00
41684;BME280;27369;52.030;4.586;2023-04-27T01:49:47;-9099.59;;;-144.41;100.00
41684;BME280;27369;52.030;4.586;2023-04-27T01:52:12;-9349.03;;;-144.41;100.00
41684;BME280;27369;52.030;4.586;2023-04-27T01:54:37;-9598.44;;;-144.41;100.00
41684;BME280;27369;52.030;4.586;2023-04-27T01:57:03;-9847.88;;;-144.41;100.00
41684;BME280;27369;52.030;4.586;2023-04-27T01:59:28;-9847.88;;;-144.41;100.00
41684;BME280;27369;52.030;4.586;2023-04-27T02:01:54;-10346.63;;;-144.41;100.00
41684;BME280;27369;52.030;4.586;2023-04-27T02:04:20;-10845.34;;;-144.41;100.00
41684;BME280;27369;52.030;4.586;2023-04-27T02:06:46;-10845.34;;;-144.41;100.00
41684;BME280;27369;52.030;4.586;2023-04-27T02:09:11;-11094.69;;;-144.41;100.00
41684;BME280;27369;52.030;4.586;2023-04-27T02:11:37;-10097.25;;;-144.41;100.00
41684;BME280;27369;52.030;4.586;2023-04-27T02:14:03;-10097.25;;;-144.41;100.00
41684;BME280;27369;52.030;4.586;2023-04-27T02:16:28;-10097.25;;;-144.41;100.00
41684;BME280;27369;52.030;4.586;2023-04-27T02:18:54;-10097.25;;;-144.41;100.00
41684;BME280;27369;52.030;4.586;2023-04-27T02:21:19;-10097.25;;;-144.41;100.00
41684;BME280;27369;52.030;4.586;2023-04-27T02:23:45;-10346.63;;;-144.41;100.00
41684;BME280;27369;52.030;4.586;2023-04-27T02:26:18;-10845.34;;;-144.41;100.00
41684;BME280;27369;52.030;4.586;2023-04-27T02:28:44;-11344.00;;;-144.41;100.00
41684;BME280;27369;52.030;4.586;2023-04-27T02:31:10;-11344.00;;;-144.41;100.00
41684;BME280;27369;52.030;4.586;2023-04-27T02:33:36;-11842.56;;;-144.41;100.00
41684;BME280;27369;52.030;4.586;2023-04-27T02:36:01;-12341.06;;;-144.41;100.00
41684;BME280;27369;52.030;4.586;2023-04-27T02:38:28;-12341.06;;;-144.41;100.00
41684;BME280;27369;52.030;4.586;2023-04-27T02:40:54;-12091.84;;;-144.41;100.00
41684;BME280;27369;52.030;4.586;2023-04-27T02:43:20;-12091.84;;;-144.41;100.00
41684;BME280;27369;52.030;4.586;2023-04-27T02:45:45;-12091.84;;;-144.41;100.00
41684;BME280;27369;52.030;4.586;2023-04-27T02:48:11;-11842.56;;;-144.41;100.00
41684;BME280;27369;52.030;4.586;2023-04-27T02:50:43;-12091.84;;;-144.41;100.00
41684;BME280;27369;52.030;4.586;2023-04-27T02:53:10;-11842.56;;;-144.41;100.00
41684;BME280;27369;52.030;4.586;2023-04-27T02:55:36;-11842.56;;;-144.41;100.00
41684;BME280;27369;52.030;4.586;2023-04-27T02:58:02;-12091.84;;;-144.41;100.00
41684;BME280;27369;52.030;4.586;2023-04-27T03:00:28;-12091.84;;;-144.41;100.00
41684;BME280;27369;52.030;4.586;2023-04-27T03:02:53;-12091.84;;;-144.41;100.00
41684;BME280;27369;52.030;4.586;2023-04-27T03:05:18;-12341.06;;;-144.41;100.00
41684;BME280;27369;52.030;4.586;2023-04-27T03:07:44;-12091.84;;;-144.41;100.00
41684;BME280;27369;52.030;4.586;2023-04-27T03:10:10;-11842.56;;;-144.41;100.00
41684;BME280;27369;52.030;4.586;2023-04-27T03:12:35;-12091.84;;;-144.41;100.00
41684;BME280;27369;52.030;4.586;2023-04-27T03:15:01;-12341.06;;;-144.41;100.00
41684;BME280;27369;52.030;4.586;2023-04-27T03:17:27;-12341.06;;;-144.41;100.00
41684;BME280;27369;52.030;4.586;2023-04-27T03:19:53;-12341.06;;;-144.41;100.00
41684;BME280;27369;52.030;4.586;2023-04-27T03:22:19;-12590.31;;;-144.41;100.00
41684;BME280;27369;52.030;4.586;2023-04-27T03:24:44;-12590.31;;;-144.41;100.00
41684;BME280;27369;52.030;4.586;2023-04-27T03:27:10;-12341.06;;;-144.41;100.00
41684;BME280;27369;52.030;4.586;2023-04-27T03:29:35;-12341.06;;;-144.41;100.00
41684;BME280;27369;52.030;4.586;2023-04-27T03:32:02;-12091.84;;;-144.41;100.00
41684;BME280;27369;52.030;4.586;2023-04-27T03:34:28;-12091.84;;;-144.41;100.00
41684;BME280;27369;52.030;4.586;2023-04-27T03:36:54;-12091.84;;;-144.41;100.00
41684;BME280;27369;52.030;4.586;2023-04-27T03:39:19;-12091.84;;;-144.41;100.00
41684;BME280;27369;52.030;4.586;2023-04-27T03:41:45;-11842.56;;;-144.41;100.00
41684;BME280;27369;52.030;4.586;2023-04-27T03:44:10;-11842.56;;;-144.41;100.00
41684;BME280;27369;52.030;4.586;2023-04-27T03:46:35;-12091.84;;;-144.41;100.00
41684;BME280;27369;52.030;4.586;2023-04-27T03:49:01;-12091.84;;;-144.41;100.00
41684;BME280;27369;52.030;4.586;2023-04-27T03:51:26;-11842.56;;;-144.41;100.00
41684;BME280;27369;52.030;4.586;2023-04-27T03:53:52;-11593.28;;;-144.41;100.00
41684;BME280;27369;52.030;4.586;2023-04-27T03:56:17;-11344.00;;;-144.41;100.00
41684;BME280;27369;52.030;4.586;2023-04-27T03:58:43;-11593.28;;;-144.41;100.00
41684;BME280;27369;52.030;4.586;2023-04-27T04:01:08;-11842.56;;;-144.41;100.00
41684;BME280;27369;52.030;4.586;2023-04-27T04:03:35;-11593.28;;;-144.41;100.00
41684;BME280;27369;52.030;4.586;2023-04-27T04:06:00;-11593.28;;;-144.41;100.00
41684;BME280;27369;52.030;4.586;2023-04-27T04:08:28;-11593.28;;;-144.41;100.00
41684;BME280;27369;52.030;4.586;2023-04-27T04:10:55;-11593.28;;;-144.41;100.00
41684;BME280;27369;52.030;4.586;2023-04-27T04:13:20;-11094.69;;;-144.41;100.00
41684;BME280;27369;52.030;4.586;2023-04-27T04:15:46;-10596.00;;;-144.41;100.00
41684;BME280;27369;52.030;4.586;2023-04-27T04:18:11;-10845.34;;;-144.41;100.00
41684;BME280;27369;52.030;4.586;2023-04-27T04:20:36;-10596.00;;;-144.41;100.00
41684;BME280;27369;52.030;4.586;2023-04-27T04:23:02;-10596.00;;;-144.41;100.00
41684;BME280;27369;52.030;4.586;2023-04-27T04:25:27;-10596.00;;;-144.41;100.00
41684;BME280;27369;52.030;4.586;2023-04-27T04:27:53;-10596.00;;;-144.41;100.00
41684;BME280;27369;52.030;4.586;2023-04-27T04:30:18;-10845.34;;;-144.41;100.00
41684;BME280;27369;52.030;4.586;2023-04-27T04:32:44;-10845.34;;;-144.41;100.00
41684;BME280;27369;52.030;4.586;2023-04-27T04:35:09;-10596.00;;;-144.41;100.00
41684;BME280;27369;52.030;4.586;2023-04-27T04:37:35;-10346.63;;;-144.41;100.00
41684;BME280;27369;52.030;4.586;2023-04-27T04:40:05;-10346.63;;;-144.41;100.00
41684;BME280;27369;52.030;4.586;2023-04-27T04:42:35;-10346.63;;;-144.41;100.00
41684;BME280;27369;52.030;4.586;2023-04-27T04:45:04;-10596.00;;;-144.41;100.00
41684;BME280;27369;52.030;4.586;2023-04-27T04:47:29;-10596.00;;;-144.41;100.00
41684;BME280;27369;52.030;4.586;2023-04-27T04:49:58;-10596.00;;;-144.41;100.00
41684;BME280;27369;52.030;4.586;2023-04-27T04:52:24;-10845.34;;;-144.41;100.00
41684;BME280;27369;52.030;4.586;2023-04-27T04:54:52;-11344.00;;;-144.41;100.00
41684;BME280;27369;52.030;4.586;2023-04-27T04:57:18;-11593.28;;;-144.41;100.00
41684;BME280;27369;52.030;4.586;2023-04-27T04:59:43;-11593.28;;;-144.41;100.00
41684;BME280;27369;52.030;4.586;2023-04-27T05:02:09;-11094.69;;;-144.41;100.00
41684;BME280;27369;52.030;4.586;2023-04-27T05:04:34;-10097.25;;;-144.41;100.00
41684;BME280;27369;52.030;4.586;2023-04-27T05:07:00;-9598.44;;;-144.41;100.00
41684;BME280;27369;52.030;4.586;2023-04-27T05:09:25;-8600.66;;;-144.41;100.00
41684;BME280;27369;52.030;4.586;2023-04-27T05:11:50;-8351.16;;;-144.41;100.00
41684;BME280;27369;52.030;4.586;2023-04-27T05:14:16;-7353.03;;;-144.41;100.00
41684;BME280;27369;52.030;4.586;2023-04-27T05:16:41;-6604.25;;;-144.41;100.00
41684;BME280;27369;52.030;4.586;2023-04-27T05:19:07;-6105.00;;;-144.41;100.00
41684;BME280;27369;52.030;4.586;2023-04-27T05:21:32;-6354.63;;;-144.41;100.00
41684;BME280;27369;52.030;4.586;2023-04-27T05:23:58;-5106.28;;;-144.41;100.00
41684;BME280;27369;52.030;4.586;2023-04-27T05:26:23;-4107.31;;;-144.41;100.00
41684;BME280;27369;52.030;4.586;2023-04-27T05:28:48;-2608.38;;;-144.41;100.00
41684;BME280;27369;52.030;4.586;2023-04-27T05:31:14;-2358.47;;;-144.41;100.00
41684;BME280;27369;52.030;4.586;2023-04-27T05:33:39;-1108.84;;;-144.41;100.00
41684;BME280;27369;52.030;4.586;2023-04-27T05:36:05;1391.69;;;-144.41;100.00
41684;BME280;27369;52.030;4.586;2023-04-27T05:38:30;2392.34;;;-144.41;100.00
41684;BME280;27369;52.030;4.586;2023-04-27T05:40:57;3893.84;;;-144.41;100.00
41684;BME280;27369;52.030;4.586;2023-04-27T05:43:24;6147.16;;;-144.41;100.00
41684;BME280;27369;52.030;4.586;2023-04-27T05:45:50;6397.59;;;-144.41;100.00
41684;BME280;27369;52.030;4.586;2023-04-27T05:48:15;7149.03;;;-144.41;100.00
41684;BME280;27369;52.030;4.586;2023-04-27T05:50:41;16177.78;;;-144.41;100.00
41684;BME280;27369;52.030;4.586;2023-04-27T05:53:06;17684.59;;;-144.41;100.00
41684;BME280;27369;52.030;4.586;2023-04-27T05:55:32;20951.41;;;-144.41;100.00
41684;BME280;27369;52.030;4.586;2023-04-27T05:57:57;24975.88;;;-144.41;100.00
41684;BME280;27369;52.030;4.586;2023-04-27T06:00:23;-20805.88;;;-144.41;100.00
41684;BME280;27369;52.030;4.586;2023-04-27T06:02:49;-20308.47;;;-144.41;100.00
41684;BME280;27369;52.030;4.586;2023-04-27T06:05:14;-19562.22;;;-144.41;100.00
41684;BME280;27369;52.030;4.586;2023-04-27T06:07:40;-17820.44;;;-144.41;100.00
41684;BME280;27369;52.030;4.586;2023-04-27T06:10:08;-16824.78;;;-144.41;100.00
41684;BME280;27369;52.030;4.586;2023-04-27T06:12:34;-15081.75;;;-144.41;100.00
41684;BME280;27369;52.030;4.586;2023-04-27T06:14:59;-7353.03;;;-144.41;100.00
41684;BME280;27369;52.030;4.586;2023-04-27T06:17:27;391.28;;;-144.41;100.00
41684;BME280;27369;52.030;4.586;2023-04-27T06:19:52;-2608.38;;;-144.41;100.00
41684;BME280;27369;52.030;4.586;2023-04-27T06:22:18;-4856.56;;;-144.41;100.00
41684;BME280;27369;52.030;4.586;2023-04-27T06:24:43;-18567.03;;;-144.41;100.00
41684;BME280;27369;52.030;4.586;2023-04-27T06:27:08;-20807.34;;;-144.41;100.00
41684;BME280;27369;52.030;4.586;2023-04-27T06:29:34;-20807.34;;;-144.41;100.00
41684;BME280;27369;52.030;4.586;2023-04-27T06:31:59;-20807.34;;;-144.41;100.00
41684;BME280;27369;52.030;4.586;2023-04-27T06:34:25;-20807.34;;;-144.41;100.00
41684;BME280;27369;52.030;4.586;2023-04-27T06:37:42;-20807.34;;;-144.41;100.00
41684;BME280;27369;52.030;4.586;2023-04-27T06:40:25;-10097.25;;;-144.41;100.00
41684;BME280;27369;52.030;4.586;2023-04-27T06:42:51;23214.66;;;-144.41;100.00
41684;BME280;27369;52.030;4.586;2023-04-27T06:45:17;38589.06;;;-144.41;100.00
41684;BME280;27369;52.030;4.586;2023-04-27T06:47:42;46425.44;;;-144.41;100.00
41684;BME280;27369;52.030;4.586;2023-04-27T06:50:08;33793.84;;;-144.41;100.00
41684;BME280;27369;52.030;4.586;2023-04-27T06:52:34;4644.78;;;-144.41;100.00
41684;BME280;27369;52.030;4.586;2023-04-27T06:54:59;-858.84;;;-144.41;100.00
41684;BME280;27369;52.030;4.586;2023-04-27T06:57:25;-1608.75;;;-144.41;100.00
41684;BME280;27369;52.030;4.586;2023-04-27T06:59:50;-8101.66;;;-144.41;100.00
41684;BME280;27369;52.030;4.586;2023-04-27T07:02:16;-10097.25;;;-144.41;100.00
41684;BME280;27369;52.030;4.586;2023-04-27T07:04:41;-10346.63;;;-144.41;100.00
41684;BME280;27369;52.030;4.586;2023-04-27T07:07:07;-8101.66;;;-144.41;100.00
41684;BME280;27369;52.030;4.586;2023-04-27T07:09:33;-9847.88;;;-144.41;100.00
41684;BME280;27369;52.030;4.586;2023-04-27T07:11:58;-10596.00;;;-144.41;100.00
41684;BME280;27369;52.030;4.586;2023-04-27T07:14:25;-9847.88;;;-144.41;100.00
41684;BME280;27369;52.030;4.586;2023-04-27T07:16:51;-10097.25;;;-144.41;100.00
41684;BME280;27369;52.030;4.586;2023-04-27T07:19:16;-9099.59;;;-144.41;100.00
41684;BME280;27369;52.030;4.586;2023-04-27T07:21:41;-5356.00;;;-144.41;100.00
41684;BME280;27369;52.030;4.586;2023-04-27T07:24:07;-3607.72;;;-144.41;100.00
41684;BME280;27369;52.030;4.586;2023-04-27T07:26:32;-358.84;;;-144.41;100.00
41684;BME280;27369;52.030;4.586;2023-04-27T07:28:58;4144.13;;;-144.41;100.00
41684;BME280;27369;52.030;4.586;2023-04-27T07:31:23;7149.03;;;-144.41;100.00
41684;BME280;27369;52.030;4.586;2023-04-27T07:33:48;7399.56;;;-144.41;100.00
41684;BME280;27369;52.030;4.586;2023-04-27T07:36:14;9654.91;;;-144.41;100.00
41684;BME280;27369;52.030;4.586;2023-04-27T07:38:40;11159.22;;;-144.41;100.00
41684;BME280;27369;52.030;4.586;2023-04-27T07:41:05;12413.25;;;-144.41;100.00
41684;BME280;27369;52.030;4.586;2023-04-27T07:43:31;17182.25;;;-144.41;100.00
41684;BME280;27369;52.030;4.586;2023-04-27T07:45:56;21438.53;;;-144.41;100.00
41684;BME280;27369;52.030;4.586;2023-04-27T07:48:22;22029.81;;;-144.41;100.00
41684;BME280;27369;52.030;4.586;2023-04-27T07:50:48;26045.56;;;-144.41;100.00
41684;BME280;27369;52.030;4.586;2023-04-27T07:53:14;27198.16;;;-144.41;100.00
41684;BME280;27369;52.030;4.586;2023-04-27T07:55:40;27603.44;;;-144.41;100.00
41684;BME280;27369;52.030;4.586;2023-04-27T07:58:05;29957.16;;;-144.41;100.00
41684;BME280;27369;52.030;4.586;2023-04-27T08:00:31;30165.81;;;-144.41;100.00
41684;BME280;27369;52.030;4.586;2023-04-27T08:02:56;29905.97;;;-144.41;100.00
41684;BME280;27369;52.030;4.586;2023-04-27T08:05:22;30171.72;;;-144.41;100.00
41684;BME280;27369;52.030;4.586;2023-04-27T08:07:47;31810.03;;;-144.41;100.00
41684;BME280;27369;52.030;4.586;2023-04-27T08:10:13;32911.16;;;-144.41;100.00
41684;BME280;27369;52.030;4.586;2023-04-27T08:12:39;34245.13;;;-144.41;100.00
41684;BME280;27369;52.030;4.586;2023-04-27T08:15:05;34477.66;;;-144.41;100.00
41684;BME280;27369;52.030;4.586;2023-04-27T08:17:31;35733.31;;;-144.41;100.00
41684;BME280;27369;52.030;4.586;2023-04-27T08:19:57;36510.16;;;-144.41;100.00
41684;BME280;27369;52.030;4.586;2023-04-27T08:22:22;36656.06;;;-144.41;100.00
41684;BME280;27369;52.030;4.586;2023-04-27T08:24:47;36573.25;;;-144.41;100.00
41684;BME280;27369;52.030;4.586;2023-04-27T08:27:13;36525.94;;;-144.41;100.00
41684;BME280;27369;52.030;4.586;2023-04-27T08:29:44;36376.06;;;-144.41;100.00
41684;BME280;27369;52.030;4.586;2023-04-27T08:32:11;36561.41;;;-144.41;100.00
41684;BME280;27369;52.030;4.586;2023-04-27T08:34:36;36571.28;;;-144.41;100.00
41684;BME280;27369;52.030;4.586;2023-04-27T08:37:02;36663.97;;;-144.41;100.00
41684;BME280;27369;52.030;4.586;2023-04-27T08:39:28;36991.31;;;-144.41;100.00
41684;BME280;27369;52.030;4.586;2023-04-27T08:41:54;37298.97;;;-144.41;100.00
41684;BME280;27369;52.030;4.586;2023-04-27T08:44:19;37271.38;;;-144.41;100.00
41684;BME280;27369;52.030;4.586;2023-04-27T08:46:45;37239.81;;;-144.41;100.00
41684;BME280;27369;52.030;4.586;2023-04-27T08:49:11;37269.41;;;-144.41;100.00
41684;BME280;27369;52.030;4.586;2023-04-27T08:51:36;37350.25;;;-144.41;100.00
41684;BME280;27369;52.030;4.586;2023-04-27T08:54:01;37494.25;;;-144.41;100.00
41684;BME280;27369;52.030;4.586;2023-04-27T08:56:28;36924.28;;;-144.41;100.00
41684;BME280;27369;52.030;4.586;2023-04-27T08:58:55;37295.03;;;-144.41;100.00
41684;BME280;27369;52.030;4.586;2023-04-27T09:01:22;37340.41;;;-144.41;100.00
41684;BME280;27369;52.030;4.586;2023-04-27T09:03:48;37204.31;;;-144.41;100.00
41684;BME280;27369;52.030;4.586;2023-04-27T09:06:14;37413.38;;;-144.41;100.00
41684;BME280;27369;52.030;4.586;2023-04-27T09:08:41;37549.47;;;-144.41;100.00
41684;BME280;27369;52.030;4.586;2023-04-27T09:11:06;38231.97;;;-144.41;100.00
41684;BME280;27369;52.030;4.586;2023-04-27T09:13:39;38433.22;;;-144.41;100.00
41684;BME280;27369;52.030;4.586;2023-04-27T09:16:05;38614.72;;;-144.41;100.00
41684;BME280;27369;52.030;4.586;2023-04-27T09:18:33;38553.56;;;-144.41;100.00
41684;BME280;27369;52.030;4.586;2023-04-27T09:20:59;38760.72;;;-144.41;100.00
41684;BME280;27369;52.030;4.586;2023-04-27T09:23:30;38804.13;;;-144.41;100.00
41684;BME280;27369;52.030;4.586;2023-04-27T09:25:57;39390.16;;;-144.41;100.00
41684;BME280;27369;52.030;4.586;2023-04-27T09:28:24;39265.84;;;-144.41;100.00
41684;BME280;27369;52.030;4.586;2023-04-27T09:30:53;38977.75;;;-144.41;100.00
41684;BME280;27369;52.030;4.586;2023-04-27T09:33:27;38468.72;;;-144.41;100.00
41684;BME280;27369;52.030;4.586;2023-04-27T09:35:54;38577.22;;;-144.41;100.00
41684;BME280;27369;52.030;4.586;2023-04-27T09:38:21;38514.09;;;-144.41;100.00
41684;BME280;27369;52.030;4.586;2023-04-27T09:40:48;39153.34;;;-144.41;100.00
41684;BME280;27369;52.030;4.586;2023-04-27T09:43:15;38810.03;;;-144.41;100.00
41684;BME280;27369;52.030;4.586;2023-04-27T09:45:41;39234.25;;;-144.41;100.00
41684;BME280;27369;52.030;4.586;2023-04-27T09:48:07;39204.66;;;-144.41;100.00
41684;BME280;27369;52.030;4.586;2023-04-27T09:50:38;39194.78;;;-144.41;100.00
41684;BME280;27369;52.030;4.586;2023-04-27T09:53:14;39607.22;;;-144.41;100.00
41684;BME280;27369;52.030;4.586;2023-04-27T10:01:46;40270.34;;;-144.41;100.00
41684;BME280;27369;52.030;4.586;2023-04-27T10:06:51;40191.41;;;-144.41;100.00
41684;BME280;27369;52.030;4.586;2023-04-27T10:09:20;40021.66;;;-144.41;100.00
41684;BME280;27369;52.030;4.586;2023-04-27T10:11:49;40053.25;;;-144.41;100.00
41684;BME280;27369;52.030;4.586;2023-04-27T10:14:17;40248.66;;;-144.41;100.00
41684;BME280;27369;52.030;4.586;2023-04-27T10:16:51;40136.13;;;-144.41;100.00
41684;BME280;27369;52.030;4.586;2023-04-27T10:19:16;40469.72;;;-144.41;100.00
41684;BME280;27369;52.030;4.586;2023-04-27T10:21:59;40556.56;;;-144.41;100.00
41684;BME280;27369;52.030;4.586;2023-04-27T10:24:33;41217.88;;;-144.41;100.00
41684;BME280;27369;52.030;4.586;2023-04-27T10:27:14;41184.31;;;-144.41;100.00
41684;BME280;27369;52.030;4.586;2023-04-27T10:29:42;41206.03;;;-144.41;100.00
41684;BME280;27369;52.030;4.586;2023-04-27T10:32:10;41391.63;;;-144.41;100.00
41684;BME280;27369;52.030;4.586;2023-04-27T10:34:36;41551.53;;;-144.41;100.00
41684;BME280;27369;52.030;4.586;2023-04-27T10:37:07;41731.22;;;-144.41;100.00
41684;BME280;27369;52.030;4.586;2023-04-27T10:39:42;41664.09;;;-144.41;100.00
41684;BME280;27369;52.030;4.586;2023-04-27T10:42:08;41502.19;;;-144.41;100.00
41684;BME280;27369;52.030;4.586;2023-04-27T10:44:35;41794.41;;;-144.41;100.00
41684;BME280;27369;52.030;4.586;2023-04-27T10:47:12;41593.00;;;-144.41;100.00
41684;BME280;27369;52.030;4.586;2023-04-27T10:49:38;41668.03;;;-144.41;100.00
41684;BME280;27369;52.030;4.586;2023-04-27T10:52:04;41903.00;;;-144.41;100.00
41684;BME280;27369;52.030;4.586;2023-04-27T10:54:31;41713.44;;;-144.41;100.00
41684;BME280;27369;52.030;4.586;2023-04-27T10:57:07;41691.72;;;-144.41;100.00
41684;BME280;27369;52.030;4.586;2023-04-27T10:59:33;41865.47;;;-144.41;100.00
41684;BME280;27369;52.030;4.586;2023-04-27T11:02:00;41906.94;;;-144.41;100.00
41684;BME280;27369;52.030;4.586;2023-04-27T11:04:38;41972.09;;;-144.41;100.00
41684;BME280;27369;52.030;4.586;2023-04-27T11:07:05;42295.97;;;-144.41;100.00
41684;BME280;27369;52.030;4.586;2023-04-27T11:09:33;42590.22;;;-144.41;100.00
41684;BME280;27369;52.030;4.586;2023-04-27T11:11:59;42414.44;;;-144.41;100.00
41684;BME280;27369;52.030;4.586;2023-04-27T11:14:25;42503.31;;;-144.41;100.00
41684;BME280;27369;52.030;4.586;2023-04-27T11:16:51;42663.28;;;-144.41;100.00
41684;BME280;27369;52.030;4.586;2023-04-27T11:19:17;42724.50;;;-144.41;100.00
41684;BME280;27369;52.030;4.586;2023-04-27T11:21:42;42858.81;;;-144.41;100.00
41684;BME280;27369;52.030;4.586;2023-04-27T11:24:08;43137.31;;;-144.41;100.00
41684;BME280;27369;52.030;4.586;2023-04-27T11:26:34;43291.38;;;-144.41;100.00
41684;BME280;27369;52.030;4.586;2023-04-27T11:29:02;43469.16;;;-144.41;100.00
41684;BME280;27369;52.030;4.586;2023-04-27T11:34:03;43609.41;;;-144.41;100.00
41684;BME280;27369;52.030;4.586;2023-04-27T11:36:30;43745.72;;;-144.41;100.00
41684;BME280;27369;52.030;4.586;2023-04-27T11:38:58;43844.50;;;-144.41;100.00
41684;BME280;27369;52.030;4.586;2023-04-27T11:41:34;43864.25;;;-144.41;100.00
41684;BME280;27369;52.030;4.586;2023-04-27T11:44:07;43994.66;;;-144.41;100.00
41684;BME280;27369;52.030;4.586;2023-04-27T11:46:34;43998.59;;;-144.41;100.00
41684;BME280;27369;52.030;4.586;2023-04-27T11:49:04;44081.56;;;-144.41;100.00
41684;BME280;27369;52.030;4.586;2023-04-27T11:51:31;44180.34;;;-144.41;100.00
41684;BME280;27369;52.030;4.586;2023-04-27T11:54:01;44170.47;;;-144.41;100.00
41684;BME280;27369;52.030;4.586;2023-04-27T11:56:33;44279.16;;;-144.41;100.00
41684;BME280;27369;52.030;4.586;2023-04-27T11:59:00;44296.94;;;-144.41;100.00
41684;BME280;27369;52.030;4.586;2023-04-27T12:01:25;44245.56;;;-144.41;100.00
41684;BME280;27369;52.030;4.586;2023-04-27T12:03:51;44310.75;;;-144.41;100.00
41684;BME280;27369;52.030;4.586;2023-04-27T12:06:27;44235.69;;;-144.41;100.00
41684;BME280;27369;52.030;4.586;2023-04-27T12:08:56;44273.22;;;-144.41;100.00
41684;BME280;27369;52.030;4.586;2023-04-27T12:11:23;44328.53;;;-144.41;100.00
41684;BME280;27369;52.030;4.586;2023-04-27T12:13:48;44453.00;;;-144.41;100.00
41684;BME280;27369;52.030;4.586;2023-04-27T12:16:13;44470.81;;;-144.41;100.00
41684;BME280;27369;52.030;4.586;2023-04-27T12:18:39;44532.06;;;-144.41;100.00
41684;BME280;27369;52.030;4.586;2023-04-27T12:21:04;44583.44;;;-144.41;100.00
41684;BME280;27369;52.030;4.586;2023-04-27T12:23:32;44607.13;;;-144.41;100.00
41684;BME280;27369;52.030;4.586;2023-04-27T12:25:58;44632.81;;;-144.41;100.00
41684;BME280;27369;52.030;4.586;2023-04-27T12:28:23;44648.63;;;-144.41;100.00
41684;BME280;27369;52.030;4.586;2023-04-27T12:30:49;44682.22;;;-144.41;100.00
41684;BME280;27369;52.030;4.586;2023-04-27T12:33:14;44719.78;;;-144.41;100.00
41684;BME280;27369;52.030;4.586;2023-04-27T12:35:40;44698.03;;;-144.41;100.00